createdAt,value
2023-05-05T00:00:52.701Z,11.56
2023-05-05T00:01:54.247Z,11.54
2023-05-05T00:02:52.776Z,11.54
2023-05-05T00:03:52.804Z,11.53
2023-05-05T00:04:52.644Z,11.49
2023-05-05T00:05:54.170Z,11.50
2023-05-05T00:06:52.644Z,11.47
2023-05-05T00:07:52.644Z,11.47
2023-05-05T00:08:52.617Z,11.46
2023-05-05T00:09:52.625Z,11.44
2023-05-05T00:10:52.578Z,11.43
2023-05-05T00:11:52.635Z,11.41
2023-05-05T00:12:52.679Z,11.39
2023-05-05T00:13:52.587Z,11.41
2023-05-05T00:14:52.564Z,11.41
2023-05-05T00:15:52.570Z,11.43
2023-05-05T00:16:52.593Z,11.41
2023-05-05T00:17:52.633Z,11.39
2023-05-05T00:18:52.479Z,11.38
2023-05-05T00:19:52.502Z,11.36
2023-05-05T00:20:52.475Z,11.34
2023-05-05T00:21:52.498Z,11.32
2023-05-05T00:22:53.399Z,11.31
2023-05-05T00:23:53.409Z,11.28
2023-05-05T00:24:52.434Z,11.28
2023-05-05T00:25:52.429Z,11.29
2023-05-05T00:26:52.420Z,11.29
2023-05-05T00:27:52.416Z,11.31
2023-05-05T00:28:52.388Z,11.28
2023-05-05T00:29:52.418Z,11.28
2023-05-05T00:30:52.390Z,11.28
2023-05-05T00:31:52.421Z,11.27
2023-05-05T00:32:52.415Z,11.25
2023-05-05T00:33:52.353Z,11.24
2023-05-05T00:34:52.329Z,11.21
2023-05-05T00:35:52.339Z,11.24
2023-05-05T00:36:52.318Z,11.21
2023-05-05T00:37:52.310Z,11.20
2023-05-05T00:38:52.275Z,11.17
2023-05-05T00:39:52.304Z,11.16
2023-05-05T00:40:52.290Z,11.14
2023-05-05T00:41:52.324Z,11.14
2023-05-05T00:42:52.505Z,11.13
2023-05-05T00:43:52.249Z,11.11
2023-05-05T00:44:52.213Z,11.13
2023-05-05T00:45:52.210Z,11.11
2023-05-05T00:46:52.231Z,11.10
2023-05-05T00:47:52.257Z,11.10
2023-05-05T00:48:52.206Z,11.07
2023-05-05T00:49:52.164Z,11.03
2023-05-05T00:50:52.141Z,11.03
2023-05-05T00:51:53.101Z,11.03
2023-05-05T00:52:52.129Z,11.06
2023-05-05T00:53:52.202Z,11.06
2023-05-05T00:54:52.082Z,11.03
2023-05-05T00:55:52.130Z,11.03
2023-05-05T00:56:52.094Z,11.03
2023-05-05T00:57:52.082Z,11.03
2023-05-05T00:58:52.067Z,11.03
2023-05-05T00:59:52.088Z,11.02
2023-05-05T01:00:53.006Z,10.99
2023-05-05T01:01:53.134Z,10.99
2023-05-05T01:02:52.113Z,10.98
2023-05-05T01:03:52.377Z,10.98
2023-05-05T01:04:51.974Z,10.95
2023-05-05T01:05:52.008Z,10.96
2023-05-05T01:06:51.968Z,10.95
2023-05-05T01:07:51.967Z,10.94
2023-05-05T01:08:51.947Z,10.91
2023-05-05T01:10:04.209Z,10.92
2023-05-05T01:10:53.862Z,10.92
2023-05-05T01:11:51.912Z,10.86
2023-05-05T01:12:51.923Z,10.86
2023-05-05T01:13:51.934Z,10.86
2023-05-05T01:14:51.866Z,10.83
2023-05-05T01:15:51.940Z,10.81
2023-05-05T01:16:51.844Z,10.81
2023-05-05T01:17:51.948Z,10.78
2023-05-05T01:18:51.867Z,10.80
2023-05-05T01:19:51.858Z,10.80
2023-05-05T01:20:51.796Z,10.77
2023-05-05T01:21:51.860Z,10.77
2023-05-05T01:22:51.770Z,10.76
2023-05-05T01:23:51.839Z,10.76
2023-05-05T01:24:51.750Z,10.74
2023-05-05T01:25:51.775Z,10.73
2023-05-05T01:26:51.714Z,10.71
2023-05-05T01:27:51.732Z,10.70
2023-05-05T01:28:51.722Z,10.66
2023-05-05T01:29:51.722Z,10.65
2023-05-05T01:30:51.692Z,10.65
2023-05-05T01:31:52.679Z,10.63
2023-05-05T01:32:52.683Z,10.63
2023-05-05T01:33:51.668Z,10.62
2023-05-05T01:34:51.652Z,10.59
2023-05-05T01:35:51.663Z,10.59
2023-05-05T01:36:51.620Z,10.56
2023-05-05T01:37:52.595Z,10.55
2023-05-05T01:38:52.568Z,10.53
2023-05-05T01:39:51.662Z,10.51
2023-05-05T01:40:51.558Z,10.47
2023-05-05T01:41:51.578Z,10.47
2023-05-05T01:42:51.540Z,10.44
2023-05-05T01:43:51.575Z,10.47
2023-05-05T01:44:51.530Z,10.47
2023-05-05T01:45:51.578Z,10.46
2023-05-05T01:46:51.489Z,10.46
2023-05-05T01:47:51.535Z,10.46
2023-05-05T01:48:51.496Z,10.46
2023-05-05T01:49:51.479Z,10.43
2023-05-05T01:50:51.477Z,10.42
2023-05-05T01:51:51.478Z,10.40
2023-05-05T01:52:51.430Z,10.39
2023-05-05T01:53:51.462Z,10.34
2023-05-05T01:54:51.409Z,10.34
2023-05-05T01:55:51.439Z,10.33
2023-05-05T01:56:51.423Z,10.33
2023-05-05T01:57:51.448Z,10.30
2023-05-05T01:58:51.396Z,10.25
2023-05-05T01:59:51.370Z,10.22
2023-05-05T02:00:51.334Z,10.21
2023-05-05T02:01:51.365Z,10.18
2023-05-05T02:02:52.352Z,10.15
2023-05-05T02:03:52.305Z,10.14
2023-05-05T02:04:51.291Z,10.10
2023-05-05T02:05:51.315Z,10.10
2023-05-05T02:06:51.277Z,10.07
2023-05-05T02:07:51.340Z,10.06
2023-05-05T02:08:51.261Z,10.06
2023-05-05T02:09:51.253Z,10.06
2023-05-05T02:10:51.222Z,10.04
2023-05-05T02:11:51.258Z,10.03
2023-05-05T02:12:51.261Z,10.01
2023-05-05T02:13:51.267Z,10.01
2023-05-05T02:14:51.179Z,10.00
2023-05-05T02:15:51.227Z,9.97
2023-05-05T02:16:51.169Z,9.97
2023-05-05T02:17:51.186Z,9.99
2023-05-05T02:18:51.141Z,10.00
2023-05-05T02:19:51.169Z,10.00
2023-05-05T02:20:51.138Z,9.97
2023-05-05T02:21:51.123Z,9.96
2023-05-05T02:22:51.097Z,9.96
2023-05-05T02:23:51.118Z,9.97
2023-05-05T02:24:51.066Z,9.96
2023-05-05T02:25:51.127Z,9.94
2023-05-05T02:26:51.057Z,9.94
2023-05-05T02:27:51.086Z,9.91
2023-05-05T02:28:51.117Z,9.91
2023-05-05T02:29:51.056Z,9.93
2023-05-05T02:30:51.006Z,9.94
2023-05-05T02:31:51.138Z,9.93
2023-05-05T02:32:51.033Z,9.97
2023-05-05T02:33:51.973Z,9.97
2023-05-05T02:34:51.942Z,9.97
2023-05-05T02:35:50.970Z,10.00
2023-05-05T02:36:50.964Z,10.01
2023-05-05T02:37:50.981Z,10.00
2023-05-05T02:38:50.913Z,10.00
2023-05-05T02:39:50.943Z,10.00
2023-05-05T02:40:50.905Z,10.00
2023-05-05T02:41:50.908Z,10.00
2023-05-05T02:42:52.448Z,9.99
2023-05-05T02:43:50.910Z,10.00
2023-05-05T02:44:50.853Z,10.00
2023-05-05T02:45:50.868Z,10.01
2023-05-05T02:46:50.887Z,10.01
2023-05-05T02:47:50.901Z,10.04
2023-05-05T02:48:50.861Z,10.04
2023-05-05T02:49:50.835Z,10.04
2023-05-05T02:50:50.771Z,10.03
2023-05-05T02:51:50.802Z,10.04
2023-05-05T02:52:50.757Z,10.07
2023-05-05T02:53:50.797Z,10.07
2023-05-05T02:54:50.735Z,10.04
2023-05-05T02:55:50.758Z,10.03
2023-05-05T02:56:50.734Z,10.01
2023-05-05T02:57:50.765Z,10.00
2023-05-05T02:58:50.700Z,10.00
2023-05-05T02:59:51.013Z,9.96
2023-05-05T03:00:51.243Z,9.89
2023-05-05T03:01:50.802Z,9.75
2023-05-05T03:02:51.695Z,9.67
2023-05-05T03:03:50.823Z,9.60
2023-05-05T03:04:50.626Z,9.57
2023-05-05T03:05:50.643Z,9.57
2023-05-05T03:06:50.616Z,9.58
2023-05-05T03:07:50.609Z,9.58
2023-05-05T03:08:50.591Z,9.63
2023-05-05T03:09:50.607Z,9.64
2023-05-05T03:10:50.570Z,9.67
2023-05-05T03:11:50.576Z,9.67
2023-05-05T03:12:50.628Z,9.68
2023-05-05T03:13:50.591Z,9.67
2023-05-05T03:14:50.524Z,9.67
2023-05-05T03:15:50.644Z,9.67
2023-05-05T03:16:50.490Z,9.66
2023-05-05T03:17:50.527Z,9.66
2023-05-05T03:18:50.503Z,9.64
2023-05-05T03:19:50.488Z,9.63
2023-05-05T03:20:50.445Z,9.64
2023-05-05T03:21:50.456Z,9.61
2023-05-05T03:22:50.448Z,9.60
2023-05-05T03:23:50.439Z,9.58
2023-05-05T03:24:50.419Z,9.58
2023-05-05T03:25:50.423Z,9.58
2023-05-05T03:26:50.396Z,9.57
2023-05-05T03:27:50.409Z,9.57
2023-05-05T03:28:50.377Z,9.57
2023-05-05T03:29:50.390Z,9.57
2023-05-05T03:30:50.341Z,9.53
2023-05-05T03:31:50.469Z,9.56
2023-05-05T03:32:50.315Z,9.58
2023-05-05T03:33:50.322Z,9.56
2023-05-05T03:34:50.307Z,9.57
2023-05-05T03:35:50.397Z,9.53
2023-05-05T03:36:50.271Z,9.53
2023-05-05T03:37:50.272Z,9.52
2023-05-05T03:38:50.255Z,9.56
2023-05-05T03:39:50.269Z,9.53
2023-05-05T03:40:50.280Z,9.56
2023-05-05T03:41:50.232Z,9.57
2023-05-05T03:42:51.187Z,9.57
2023-05-05T03:43:50.185Z,9.58
2023-05-05T03:44:50.219Z,9.58
2023-05-05T03:45:50.280Z,9.57
2023-05-05T03:46:50.189Z,9.60
2023-05-05T03:47:50.203Z,9.58
2023-05-05T03:48:50.164Z,9.56
2023-05-05T03:49:50.161Z,9.58
2023-05-05T03:50:50.165Z,9.60
2023-05-05T03:51:50.099Z,9.58
2023-05-05T03:52:50.106Z,9.58
2023-05-05T03:53:50.080Z,9.61
2023-05-05T03:54:50.117Z,9.64
2023-05-05T03:55:50.065Z,9.64
2023-05-05T03:56:50.102Z,9.64
2023-05-05T03:57:50.032Z,9.66
2023-05-05T03:58:50.062Z,9.66
2023-05-05T03:59:50.068Z,9.66
2023-05-05T04:00:50.765Z,9.68
2023-05-05T04:01:50.026Z,9.68
2023-05-05T04:02:50.064Z,9.71
2023-05-05T04:03:50.054Z,9.73
2023-05-05T04:04:50.037Z,9.73
2023-05-05T04:05:49.996Z,9.75
2023-05-05T04:06:49.959Z,9.71
2023-05-05T04:07:49.939Z,9.68
2023-05-05T04:08:49.942Z,9.67
2023-05-05T04:09:49.940Z,9.66
2023-05-05T04:10:49.940Z,9.66
2023-05-05T04:11:49.917Z,9.66
2023-05-05T04:12:49.977Z,9.68
2023-05-05T04:13:49.911Z,9.68
2023-05-05T04:14:50.828Z,9.71
2023-05-05T04:15:49.894Z,9.75
2023-05-05T04:16:49.914Z,9.71
2023-05-05T04:17:49.872Z,9.73
2023-05-05T04:18:50.839Z,9.83
2023-05-05T04:19:49.805Z,10.09
2023-05-05T04:20:49.817Z,10.30
2023-05-05T04:21:50.740Z,10.34
2023-05-05T04:22:51.411Z,10.28
2023-05-05T04:23:50.763Z,10.15
2023-05-05T04:24:50.708Z,10.09
2023-05-05T04:25:49.742Z,10.04
2023-05-05T04:26:49.751Z,10.03
2023-05-05T04:27:49.717Z,10.03
2023-05-05T04:28:49.730Z,10.04
2023-05-05T04:29:49.691Z,10.07
2023-05-05T04:30:49.728Z,10.10
2023-05-05T04:31:49.870Z,10.19
2023-05-05T04:32:49.720Z,10.36
2023-05-05T04:33:49.659Z,10.77
2023-05-05T04:34:49.689Z,11.19
2023-05-05T04:35:49.634Z,11.29
2023-05-05T04:36:49.633Z,11.97
2023-05-05T04:37:49.597Z,12.87
2023-05-05T04:38:49.638Z,13.52
2023-05-05T04:39:49.567Z,13.92
2023-05-05T04:40:49.600Z,14.17
2023-05-05T04:41:49.559Z,14.19
2023-05-05T04:42:49.586Z,14.09
2023-05-05T04:43:49.538Z,13.88
2023-05-05T04:44:49.553Z,13.54
2023-05-05T04:45:49.503Z,12.77
2023-05-05T04:46:49.603Z,12.37
2023-05-05T04:47:49.540Z,12.11
2023-05-05T04:48:49.533Z,11.94
2023-05-05T04:49:49.469Z,11.67
2023-05-05T04:50:49.471Z,11.46
2023-05-05T04:51:49.441Z,11.24
2023-05-05T04:52:50.812Z,11.14
2023-05-05T04:53:49.424Z,11.14
2023-05-05T04:54:49.427Z,11.13
2023-05-05T04:55:49.401Z,11.10
2023-05-05T04:56:49.425Z,11.09
2023-05-05T04:57:49.383Z,11.01
2023-05-05T04:58:49.411Z,10.96
2023-05-05T04:59:49.351Z,10.92
2023-05-05T05:00:49.361Z,10.91
2023-05-05T05:01:49.386Z,10.84
2023-05-05T05:02:49.421Z,10.81
2023-05-05T05:03:49.333Z,10.80
2023-05-05T05:04:49.321Z,10.80
2023-05-05T05:05:49.295Z,10.81
2023-05-05T05:06:49.298Z,10.88
2023-05-05T05:07:49.310Z,10.94
2023-05-05T05:08:49.322Z,10.92
2023-05-05T05:09:49.270Z,10.92
2023-05-05T05:10:49.262Z,10.96
2023-05-05T05:11:49.250Z,11.10
2023-05-05T05:12:49.277Z,11.20
2023-05-05T05:13:49.237Z,11.31
2023-05-05T05:14:49.201Z,11.43
2023-05-05T05:15:49.344Z,11.50
2023-05-05T05:16:51.306Z,11.54
2023-05-05T05:17:49.161Z,11.61
2023-05-05T05:18:49.158Z,11.68
2023-05-05T05:19:49.120Z,11.74
2023-05-05T05:20:50.102Z,11.80
2023-05-05T05:21:49.129Z,11.80
2023-05-05T05:22:49.113Z,11.86
2023-05-05T05:23:49.088Z,11.93
2023-05-05T05:24:50.089Z,11.97
2023-05-05T05:25:49.196Z,12.01
2023-05-05T05:26:49.068Z,12.06
2023-05-05T05:27:55.469Z,12.09
2023-05-05T05:28:50.050Z,12.13
2023-05-05T05:29:49.042Z,12.15
2023-05-05T05:30:49.068Z,12.21
2023-05-05T05:31:49.060Z,12.24
2023-05-05T05:32:49.053Z,12.24
2023-05-05T05:33:48.978Z,12.26
2023-05-05T05:34:48.985Z,12.29
2023-05-05T05:35:48.960Z,12.33
2023-05-05T05:36:48.960Z,12.31
2023-05-05T05:37:48.924Z,12.30
2023-05-05T05:38:48.927Z,12.29
2023-05-05T05:39:48.887Z,12.33
2023-05-05T05:40:48.929Z,12.33
2023-05-05T05:41:48.878Z,12.37
2023-05-05T05:42:48.899Z,12.37
2023-05-05T05:43:48.844Z,12.41
2023-05-05T05:44:48.859Z,12.46
2023-05-05T05:45:48.916Z,12.54
2023-05-05T05:46:48.884Z,12.57
2023-05-05T05:47:48.831Z,12.64
2023-05-05T05:48:48.812Z,12.71
2023-05-05T05:49:48.766Z,12.78
2023-05-05T05:50:48.821Z,12.82
2023-05-05T05:51:48.780Z,12.79
2023-05-05T05:52:48.775Z,12.78
2023-05-05T05:53:48.757Z,12.77
2023-05-05T05:54:48.771Z,12.70
2023-05-05T05:55:48.736Z,12.69
2023-05-05T05:56:48.726Z,12.69
2023-05-05T05:57:48.707Z,12.71
2023-05-05T05:58:48.704Z,12.75
2023-05-05T05:59:48.690Z,12.77
2023-05-05T06:00:48.704Z,12.70
2023-05-05T06:01:48.798Z,12.66
2023-05-05T06:02:48.716Z,12.64
2023-05-05T06:03:48.703Z,12.60
2023-05-05T06:04:48.637Z,12.66
2023-05-05T06:05:48.620Z,12.74
2023-05-05T06:06:48.616Z,12.71
2023-05-05T06:07:48.570Z,12.70
2023-05-05T06:08:48.633Z,12.71
2023-05-05T06:09:48.577Z,12.74
2023-05-05T06:10:48.568Z,12.77
2023-05-05T06:11:48.535Z,12.81
2023-05-05T06:12:48.609Z,12.92
2023-05-05T06:13:48.543Z,13.00
2023-05-05T06:14:48.521Z,13.09
2023-05-05T06:15:48.500Z,13.20
2023-05-05T06:16:48.499Z,13.30
2023-05-05T06:17:50.012Z,13.38
2023-05-05T06:18:48.481Z,13.44
2023-05-05T06:19:48.441Z,13.55
2023-05-05T06:20:48.477Z,13.62
2023-05-05T06:21:49.360Z,13.70
2023-05-05T06:22:48.423Z,13.76
2023-05-05T06:23:48.421Z,13.88
2023-05-05T06:24:48.398Z,13.96
2023-05-05T06:25:48.374Z,14.04
2023-05-05T06:26:48.397Z,14.12
2023-05-05T06:27:48.382Z,14.16
2023-05-05T06:28:48.371Z,14.24
2023-05-05T06:29:49.283Z,14.29
2023-05-05T06:30:48.349Z,14.34
2023-05-05T06:31:48.373Z,14.32
2023-05-05T06:32:48.365Z,14.31
2023-05-05T06:33:48.291Z,14.27
2023-05-05T06:34:48.323Z,14.27
2023-05-05T06:35:48.249Z,14.27
2023-05-05T06:36:48.353Z,14.34
2023-05-05T06:37:48.227Z,14.42
2023-05-05T06:38:48.246Z,14.52
2023-05-05T06:39:48.251Z,14.62
2023-05-05T06:40:48.220Z,14.69
2023-05-05T06:41:48.200Z,14.75
2023-05-05T06:42:48.219Z,14.88
2023-05-05T06:43:48.185Z,14.95
2023-05-05T06:44:48.181Z,15.03
2023-05-05T06:45:48.140Z,15.06
2023-05-05T06:46:48.197Z,15.11
2023-05-05T06:47:48.257Z,15.13
2023-05-05T06:48:48.146Z,15.19
2023-05-05T06:49:48.104Z,15.27
2023-05-05T06:50:48.136Z,15.35
2023-05-05T06:51:48.084Z,15.42
2023-05-05T06:52:48.087Z,15.48
2023-05-05T06:53:48.072Z,15.49
2023-05-05T06:54:48.085Z,15.56
2023-05-05T06:55:48.090Z,15.61
2023-05-05T06:56:48.043Z,15.63
2023-05-05T06:57:48.025Z,15.63
2023-05-05T06:58:48.043Z,15.67
2023-05-05T06:59:48.002Z,15.68
2023-05-05T07:00:48.083Z,15.68
2023-05-05T07:01:47.969Z,15.67
2023-05-05T07:02:48.040Z,15.63
2023-05-05T07:03:48.086Z,15.64
2023-05-05T07:04:47.982Z,15.72
2023-05-05T07:05:47.959Z,15.76
2023-05-05T07:06:47.976Z,15.78
2023-05-05T07:07:47.942Z,15.78
2023-05-05T07:08:47.931Z,15.79
2023-05-05T07:09:47.874Z,15.79
2023-05-05T07:10:47.910Z,15.82
2023-05-05T07:11:47.872Z,15.84
2023-05-05T07:12:47.955Z,15.85
2023-05-05T07:13:47.842Z,15.89
2023-05-05T07:14:47.869Z,15.89
2023-05-05T07:15:47.807Z,16.00
2023-05-05T07:16:47.914Z,16.07
2023-05-05T07:17:47.900Z,16.16
2023-05-05T07:18:47.801Z,16.25
2023-05-05T07:19:47.770Z,16.27
2023-05-05T07:20:47.804Z,16.33
2023-05-05T07:21:47.747Z,16.40
2023-05-05T07:22:47.753Z,16.48
2023-05-05T07:23:47.817Z,16.56
2023-05-05T07:24:49.142Z,16.65
2023-05-05T07:25:47.733Z,16.70
2023-05-05T07:26:47.712Z,16.78
2023-05-05T07:27:47.693Z,16.86
2023-05-05T07:28:47.712Z,16.90
2023-05-05T07:29:47.667Z,16.90
2023-05-05T07:30:47.683Z,16.95
2023-05-05T07:31:47.689Z,16.99
2023-05-05T07:32:47.767Z,16.99
2023-05-05T07:33:47.656Z,16.98
2023-05-05T07:34:47.665Z,16.96
2023-05-05T07:35:47.611Z,16.99
2023-05-05T07:36:47.612Z,17.04
2023-05-05T07:37:47.586Z,17.07
2023-05-05T07:38:47.606Z,17.14
2023-05-05T07:39:47.540Z,17.26
2023-05-05T07:40:47.575Z,17.36
2023-05-05T07:41:47.536Z,17.36
2023-05-05T07:42:48.482Z,17.40
2023-05-05T07:43:47.509Z,17.38
2023-05-05T07:44:47.542Z,17.38
2023-05-05T07:45:47.497Z,17.40
2023-05-05T07:46:47.494Z,17.48
2023-05-05T07:47:47.529Z,17.53
2023-05-05T07:48:47.512Z,17.55
2023-05-05T07:49:47.468Z,17.51
2023-05-05T07:50:47.452Z,17.51
2023-05-05T07:51:47.418Z,17.50
2023-05-05T07:52:51.703Z,17.47
2023-05-05T07:53:48.402Z,17.47
2023-05-05T07:54:47.408Z,17.46
2023-05-05T07:55:47.365Z,17.51
2023-05-05T07:56:47.358Z,17.53
2023-05-05T07:57:47.386Z,17.54
2023-05-05T07:58:47.370Z,17.55
2023-05-05T07:59:47.358Z,17.57
2023-05-05T08:00:47.328Z,17.63
2023-05-05T08:01:47.348Z,17.66
2023-05-05T08:02:47.387Z,17.70
2023-05-05T08:03:47.469Z,17.71
2023-05-05T08:04:47.363Z,17.73
2023-05-05T08:05:47.377Z,17.81
2023-05-05T08:06:47.254Z,17.87
2023-05-05T08:07:47.285Z,17.87
2023-05-05T08:08:48.705Z,17.85
2023-05-05T08:09:47.378Z,17.81
2023-05-05T08:10:48.167Z,17.82
2023-05-05T08:11:48.730Z,17.82
2023-05-05T08:12:48.656Z,17.89
2023-05-05T08:13:48.657Z,17.95
2023-05-05T08:14:48.608Z,18.06
2023-05-05T08:15:48.658Z,18.12
2023-05-05T08:16:48.612Z,18.19
2023-05-05T08:17:48.645Z,18.19
2023-05-05T08:18:49.062Z,18.19
2023-05-05T08:19:48.598Z,18.24
2023-05-05T08:20:48.548Z,18.21
2023-05-05T08:21:48.580Z,18.21
2023-05-05T08:22:47.881Z,18.18
2023-05-05T08:23:47.309Z,18.12
2023-05-05T08:24:47.059Z,18.07
2023-05-05T08:25:47.109Z,18.02
2023-05-05T08:26:47.061Z,17.99
2023-05-05T08:27:47.033Z,17.91
2023-05-05T08:28:47.023Z,17.81
2023-05-05T08:29:47.056Z,17.74
2023-05-05T08:30:47.006Z,17.66
2023-05-05T08:31:47.018Z,17.63
2023-05-05T08:32:47.004Z,17.59
2023-05-05T08:33:46.988Z,17.51
2023-05-05T08:34:46.922Z,17.47
2023-05-05T08:35:46.951Z,17.46
2023-05-05T08:36:46.925Z,17.44
2023-05-05T08:37:46.926Z,17.41
2023-05-05T08:38:46.920Z,17.43
2023-05-05T08:39:46.919Z,17.44
2023-05-05T08:40:46.863Z,17.43
2023-05-05T08:41:46.884Z,17.46
2023-05-05T08:42:46.857Z,17.46
2023-05-05T08:43:46.846Z,17.46
2023-05-05T08:44:46.849Z,17.47
2023-05-05T08:45:46.828Z,17.48
2023-05-05T08:46:46.881Z,17.51
2023-05-05T08:47:46.826Z,17.50
2023-05-05T08:48:46.765Z,17.53
2023-05-05T08:49:46.780Z,17.53
2023-05-05T08:50:46.801Z,17.54
2023-05-05T08:51:46.783Z,17.55
2023-05-05T08:52:47.640Z,17.57
2023-05-05T08:53:46.766Z,17.55
2023-05-05T08:54:46.700Z,17.55
2023-05-05T08:55:46.766Z,17.57
2023-05-05T08:56:48.148Z,17.55
2023-05-05T08:57:46.736Z,17.59
2023-05-05T08:58:46.658Z,17.62
2023-05-05T08:59:46.696Z,17.66
2023-05-05T09:00:46.723Z,17.70
2023-05-05T09:01:46.669Z,17.74
2023-05-05T09:02:46.758Z,17.79
2023-05-05T09:03:46.649Z,17.84
2023-05-05T09:04:46.602Z,17.89
2023-05-05T09:05:46.591Z,17.91
2023-05-05T09:06:46.560Z,17.91
2023-05-05T09:07:46.609Z,17.91
2023-05-05T09:08:46.553Z,17.92
2023-05-05T09:09:46.553Z,17.95
2023-05-05T09:10:46.527Z,18.00
2023-05-05T09:11:46.545Z,18.00
2023-05-05T09:12:46.567Z,18.00
2023-05-05T09:13:46.516Z,18.02
2023-05-05T09:14:46.483Z,18.00
2023-05-05T09:15:46.486Z,18.00
2023-05-05T09:16:46.473Z,18.03
2023-05-05T09:17:46.512Z,18.06
2023-05-05T09:18:46.451Z,18.09
2023-05-05T09:19:46.463Z,18.15
2023-05-05T09:20:47.926Z,18.21
2023-05-05T09:21:46.442Z,18.25
2023-05-05T09:22:46.401Z,18.29
2023-05-05T09:23:46.426Z,18.36
2023-05-05T09:24:46.363Z,18.42
2023-05-05T09:25:46.377Z,18.46
2023-05-05T09:26:46.368Z,18.57
2023-05-05T09:27:46.349Z,18.61
2023-05-05T09:28:46.318Z,18.65
2023-05-05T09:29:46.335Z,18.68
2023-05-05T09:30:46.529Z,18.76
2023-05-05T09:31:46.317Z,18.86
2023-05-05T09:32:46.305Z,18.95
2023-05-05T09:33:46.267Z,19.06
2023-05-05T09:34:46.249Z,19.11
2023-05-05T09:35:46.295Z,19.18
2023-05-05T09:36:46.251Z,19.25
2023-05-05T09:37:46.260Z,19.32
2023-05-05T09:38:46.238Z,19.36
2023-05-05T09:39:46.232Z,19.40
2023-05-05T09:40:46.182Z,19.46
2023-05-05T09:41:46.201Z,19.51
2023-05-05T09:42:46.189Z,19.54
2023-05-05T09:43:47.648Z,19.57
2023-05-05T09:44:46.153Z,19.54
2023-05-05T09:45:46.191Z,19.58
2023-05-05T09:46:46.230Z,19.63
2023-05-05T09:47:46.245Z,19.65
2023-05-05T09:48:46.115Z,19.69
2023-05-05T09:49:46.133Z,19.76
2023-05-05T09:50:46.074Z,19.90
2023-05-05T09:51:46.099Z,19.84
2023-05-05T09:52:46.708Z,19.79
2023-05-05T09:53:46.062Z,19.79
2023-05-05T09:54:46.056Z,19.76
2023-05-05T09:55:46.045Z,19.66
2023-05-05T09:56:46.008Z,19.69
2023-05-05T09:57:47.620Z,19.70
2023-05-05T09:58:46.010Z,19.68
2023-05-05T09:59:46.033Z,19.70
2023-05-05T10:00:45.968Z,19.70
2023-05-05T10:01:46.000Z,19.72
2023-05-05T10:02:45.942Z,19.78
2023-05-05T10:03:45.958Z,19.86
2023-05-05T10:04:45.955Z,19.93
2023-05-05T10:05:45.933Z,19.97
2023-05-05T10:06:45.919Z,20.02
2023-05-05T10:07:45.892Z,19.97
2023-05-05T10:08:45.868Z,20.08
2023-05-05T10:09:45.911Z,20.16
2023-05-05T10:10:45.864Z,20.21
2023-05-05T10:11:45.854Z,20.27
2023-05-05T10:12:45.855Z,20.34
2023-05-05T10:13:45.832Z,20.38
2023-05-05T10:14:45.824Z,20.33
2023-05-05T10:15:45.861Z,20.25
2023-05-05T10:16:45.913Z,20.24
2023-05-05T10:17:58.301Z,20.13
2023-05-05T10:18:46.768Z,20.10
2023-05-05T10:19:45.793Z,20.13
2023-05-05T10:20:45.755Z,20.25
2023-05-05T10:21:45.739Z,20.38
2023-05-05T10:22:45.704Z,20.43
2023-05-05T10:23:45.734Z,20.35
2023-05-05T10:24:45.696Z,20.30
2023-05-05T10:25:45.684Z,20.18
2023-05-05T10:26:45.652Z,20.30
2023-05-05T10:27:45.687Z,20.34
2023-05-05T10:28:45.688Z,20.41
2023-05-05T10:29:45.656Z,20.47
2023-05-05T10:30:45.616Z,20.49
2023-05-05T10:31:45.659Z,20.42
2023-05-05T10:32:59.289Z,20.47
2023-05-05T10:33:46.653Z,20.51
2023-05-05T10:34:45.576Z,20.39
2023-05-05T10:35:46.605Z,20.30
2023-05-05T10:36:45.564Z,20.27
2023-05-05T10:37:45.572Z,20.38
2023-05-05T10:38:45.518Z,20.43
2023-05-05T10:39:45.547Z,20.50
2023-05-05T10:40:45.506Z,20.61
2023-05-05T10:41:45.513Z,20.68
2023-05-05T10:42:45.512Z,20.69
2023-05-05T10:43:45.508Z,20.68
2023-05-05T10:44:45.461Z,20.74
2023-05-05T10:45:47.114Z,20.50
2023-05-05T10:46:45.579Z,20.47
2023-05-05T10:47:45.523Z,20.53
2023-05-05T10:48:46.492Z,20.54
2023-05-05T10:49:45.430Z,20.51
2023-05-05T10:50:45.402Z,20.51
2023-05-05T10:51:45.395Z,20.49
2023-05-05T10:52:45.393Z,20.56
2023-05-05T10:53:45.439Z,20.50
2023-05-05T10:54:45.371Z,20.49
2023-05-05T10:55:45.350Z,20.54
2023-05-05T10:56:45.355Z,20.66
2023-05-05T10:57:45.377Z,20.72
2023-05-05T10:58:59.269Z,20.80
2023-05-05T10:59:46.315Z,20.93
2023-05-05T11:00:45.317Z,20.93
2023-05-05T11:01:45.318Z,20.81
2023-05-05T11:02:45.287Z,20.74
2023-05-05T11:03:45.292Z,20.61
2023-05-05T11:04:45.247Z,20.51
2023-05-05T11:05:45.276Z,20.38
2023-05-05T11:06:45.232Z,20.35
2023-05-05T11:07:45.264Z,20.35
2023-05-05T11:08:45.233Z,20.41
2023-05-05T11:09:45.203Z,20.35
2023-05-05T11:10:45.173Z,20.35
2023-05-05T11:11:45.184Z,20.34
2023-05-05T11:12:45.179Z,20.35
2023-05-05T11:13:45.182Z,20.30
2023-05-05T11:14:45.112Z,20.23
2023-05-05T11:15:45.120Z,20.25
2023-05-05T11:16:45.126Z,20.27
2023-05-05T11:17:45.162Z,20.28
2023-05-05T11:18:45.144Z,20.34
2023-05-05T11:19:45.088Z,20.38
2023-05-05T11:20:45.044Z,20.39
2023-05-05T11:21:45.074Z,20.35
2023-05-05T11:22:45.047Z,20.38
2023-05-05T11:23:45.052Z,20.41
2023-05-05T11:24:45.005Z,20.31
2023-05-05T11:25:45.021Z,20.27
2023-05-05T11:26:44.989Z,20.25
2023-05-05T11:27:44.992Z,20.24
2023-05-05T11:28:44.986Z,20.28
2023-05-05T11:29:44.963Z,20.31
2023-05-05T11:30:45.000Z,20.33
2023-05-05T11:31:44.939Z,20.34
2023-05-05T11:32:44.982Z,20.35
2023-05-05T11:33:44.926Z,20.28
2023-05-05T11:34:44.885Z,20.23
2023-05-05T11:35:44.909Z,20.21
2023-05-05T11:36:44.872Z,20.23
2023-05-05T11:37:44.911Z,20.25
2023-05-05T11:38:44.867Z,20.24
2023-05-05T11:39:44.873Z,20.25
2023-05-05T11:40:44.933Z,20.23
2023-05-05T11:41:44.854Z,20.16
2023-05-05T11:42:44.796Z,20.15
2023-05-05T11:43:44.830Z,20.15
2023-05-05T11:44:44.804Z,20.15
2023-05-05T11:45:44.792Z,20.16
2023-05-05T11:46:44.766Z,20.16
2023-05-05T11:47:44.800Z,20.21
2023-05-05T11:48:44.736Z,20.21
2023-05-05T11:49:44.794Z,20.24
2023-05-05T11:50:44.706Z,20.25
2023-05-05T11:51:44.805Z,20.28
2023-05-05T11:52:44.676Z,20.31
2023-05-05T11:53:44.717Z,20.28
2023-05-05T11:54:44.675Z,20.12
2023-05-05T11:55:44.685Z,20.06
2023-05-05T11:56:44.645Z,20.03
2023-05-05T11:57:44.649Z,20.05
2023-05-05T11:58:44.618Z,20.06
2023-05-05T11:59:44.627Z,20.06
2023-05-05T12:00:44.615Z,20.05
2023-05-05T12:01:44.626Z,20.05
2023-05-05T12:02:44.672Z,20.05
2023-05-05T12:03:44.718Z,20.03
2023-05-05T12:04:44.582Z,20.05
2023-05-05T12:05:46.031Z,20.05
2023-05-05T12:06:44.552Z,20.03
2023-05-05T12:07:44.528Z,20.03
2023-05-05T12:08:44.491Z,20.00
2023-05-05T12:09:44.541Z,20.00
2023-05-05T12:10:44.500Z,20.00
2023-05-05T12:11:44.514Z,19.94
2023-05-05T12:12:44.629Z,19.93
2023-05-05T12:13:44.606Z,19.93
2023-05-05T12:14:44.615Z,19.88
2023-05-05T12:15:44.432Z,19.87
2023-05-05T12:16:44.503Z,19.83
2023-05-05T12:17:44.415Z,19.76
2023-05-05T12:18:44.447Z,19.73
2023-05-05T12:19:44.391Z,19.70
2023-05-05T12:20:44.424Z,19.63
2023-05-05T12:21:44.358Z,19.55
2023-05-05T12:22:44.374Z,19.51
2023-05-05T12:23:44.343Z,19.43
2023-05-05T12:24:44.364Z,19.35
2023-05-05T12:25:44.325Z,19.24
2023-05-05T12:26:44.328Z,19.20
2023-05-05T12:27:44.299Z,19.18
2023-05-05T12:28:44.385Z,19.18
2023-05-05T12:29:44.297Z,19.17
2023-05-05T12:30:44.328Z,19.20
2023-05-05T12:31:44.246Z,19.25
2023-05-05T12:32:44.423Z,19.31
2023-05-05T12:33:44.221Z,19.32
2023-05-05T12:34:44.244Z,19.32
2023-05-05T12:35:44.193Z,19.39
2023-05-05T12:36:44.199Z,19.46
2023-05-05T12:37:44.199Z,19.50
2023-05-05T12:38:44.254Z,19.58
2023-05-05T12:39:44.177Z,19.69
2023-05-05T12:40:44.194Z,19.78
2023-05-05T12:41:44.139Z,19.86
2023-05-05T12:42:45.780Z,19.87
2023-05-05T12:43:44.124Z,19.90
2023-05-05T12:44:44.146Z,19.90
2023-05-05T12:45:44.104Z,19.93
2023-05-05T12:46:44.119Z,19.93
2023-05-05T12:47:44.152Z,19.93
2023-05-05T12:48:47.235Z,19.91
2023-05-05T12:49:44.088Z,19.90
2023-05-05T12:50:44.089Z,19.87
2023-05-05T12:51:44.014Z,19.88
2023-05-05T12:52:44.034Z,19.87
2023-05-05T12:53:43.993Z,19.88
2023-05-05T12:54:44.036Z,19.87
2023-05-05T12:55:45.686Z,19.87